sensor_id;sensor_type;location;lat;lon;timestamp;P1;durP1;ratioP1;P2;durP2;ratioP2
7001;SDS011;3541;53.230;10.518;2022-11-14T00:00:37;32.40;;;21.30;;
7001;SDS011;3541;53.230;10.518;2022-11-14T00:03:04;77.87;;;41.33;;
7001;SDS011;3541;53.230;10.518;2022-11-14T00:05:37;35.97;;;22.00;;
7001;SDS011;3541;53.230;10.518;2022-11-14T00:08:04;34.60;;;22.47;;
7001;SDS011;3541;53.230;10.518;2022-11-14T00:10:32;32.13;;;20.17;;
7001;SDS011;3541;53.230;10.518;2022-11-14T00:12:59;36.10;;;21.37;;
7001;SDS011;3541;53.230;10.518;2022-11-14T00:15:26;35.07;;;21.57;;
7001;SDS011;3541;53.230;10.518;2022-11-14T00:17:52;34.77;;;21.20;;
7001;SDS011;3541;53.230;10.518;2022-11-14T00:20:19;32.37;;;21.47;;
7001;SDS011;3541;53.230;10.518;2022-11-14T00:22:45;33.93;;;21.20;;
7001;SDS011;3541;53.230;10.518;2022-11-14T00:25:12;36.30;;;22.53;;
7001;SDS011;3541;53.230;10.518;2022-11-14T00:27:40;32.57;;;20.90;;
7001;SDS011;3541;53.230;10.518;2022-11-14T00:30:07;35.27;;;22.53;;
7001;SDS011;3541;53.230;10.518;2022-11-14T00:32:34;35.80;;;22.27;;
7001;SDS011;3541;53.230;10.518;2022-11-14T00:35:00;33.90;;;22.10;;
7001;SDS011;3541;53.230;10.518;2022-11-14T00:37:27;35.17;;;21.87;;
7001;SDS011;3541;53.230;10.518;2022-11-14T00:39:54;34.90;;;22.20;;
7001;SDS011;3541;53.230;10.518;2022-11-14T00:42:21;35.97;;;22.17;;
7001;SDS011;3541;53.230;10.518;2022-11-14T00:44:49;35.13;;;22.13;;
7001;SDS011;3541;53.230;10.518;2022-11-14T00:47:15;36.57;;;21.50;;
7001;SDS011;3541;53.230;10.518;2022-11-14T00:49:42;34.43;;;21.63;;
7001;SDS011;3541;53.230;10.518;2022-11-14T00:52:08;33.80;;;21.27;;
7001;SDS011;3541;53.230;10.518;2022-11-14T00:54:35;34.97;;;21.03;;
7001;SDS011;3541;53.230;10.518;2022-11-14T00:57:02;36.93;;;22.33;;
7001;SDS011;3541;53.230;10.518;2022-11-14T00:59:28;34.50;;;21.37;;
7001;SDS011;3541;53.230;10.518;2022-11-14T01:01:56;33.60;;;21.57;;
7001;SDS011;3541;53.230;10.518;2022-11-14T01:04:23;34.07;;;21.43;;
7001;SDS011;3541;53.230;10.518;2022-11-14T01:06:49;37.27;;;22.10;;
7001;SDS011;3541;53.230;10.518;2022-11-14T01:09:16;35.60;;;21.30;;
7001;SDS011;3541;53.230;10.518;2022-11-14T01:11:42;34.47;;;20.87;;
7001;SDS011;3541;53.230;10.518;2022-11-14T01:14:09;32.03;;;21.33;;
7001;SDS011;3541;53.230;10.518;2022-11-14T01:16:36;38.87;;;22.13;;
7001;SDS011;3541;53.230;10.518;2022-11-14T01:19:03;35.53;;;21.63;;
7001;SDS011;3541;53.230;10.518;2022-11-14T01:21:30;35.97;;;22.07;;
7001;SDS011;3541;53.230;10.518;2022-11-14T01:23:57;35.93;;;21.83;;
7001;SDS011;3541;53.230;10.518;2022-11-14T01:26:24;41.50;;;23.63;;
7001;SDS011;3541;53.230;10.518;2022-11-14T01:28:50;38.13;;;23.00;;
7001;SDS011;3541;53.230;10.518;2022-11-14T01:31:19;40.10;;;22.87;;
7001;SDS011;3541;53.230;10.518;2022-11-14T01:33:47;37.33;;;22.07;;
7001;SDS011;3541;53.230;10.518;2022-11-14T01:36:16;35.90;;;21.87;;
7001;SDS011;3541;53.230;10.518;2022-11-14T01:38:43;40.93;;;22.67;;
7001;SDS011;3541;53.230;10.518;2022-11-14T01:41:10;33.97;;;21.47;;
7001;SDS011;3541;53.230;10.518;2022-11-14T01:43:39;33.60;;;21.60;;
7001;SDS011;3541;53.230;10.518;2022-11-14T01:46:08;34.67;;;22.17;;
7001;SDS011;3541;53.230;10.518;2022-11-14T01:48:42;35.53;;;22.30;;
7001;SDS011;3541;53.230;10.518;2022-11-14T01:51:17;37.07;;;22.37;;
7001;SDS011;3541;53.230;10.518;2022-11-14T01:53:49;34.17;;;21.37;;
7001;SDS011;3541;53.230;10.518;2022-11-14T01:56:20;37.70;;;22.40;;
7001;SDS011;3541;53.230;10.518;2022-11-14T01:58:51;38.87;;;23.10;;
7001;SDS011;3541;53.230;10.518;2022-11-14T02:01:22;36.70;;;22.63;;
7001;SDS011;3541;53.230;10.518;2022-11-14T02:03:49;35.40;;;22.20;;
7001;SDS011;3541;53.230;10.518;2022-11-14T02:06:20;36.47;;;22.80;;
7001;SDS011;3541;53.230;10.518;2022-11-14T02:08:50;37.27;;;23.67;;
7001;SDS011;3541;53.230;10.518;2022-11-14T02:11:18;35.47;;;22.13;;
7001;SDS011;3541;53.230;10.518;2022-11-14T02:13:45;37.97;;;23.03;;
7001;SDS011;3541;53.230;10.518;2022-11-14T02:16:12;36.83;;;22.37;;
7001;SDS011;3541;53.230;10.518;2022-11-14T02:18:38;37.80;;;22.43;;
7001;SDS011;3541;53.230;10.518;2022-11-14T02:21:06;37.60;;;22.20;;
7001;SDS011;3541;53.230;10.518;2022-11-14T02:23:33;36.67;;;22.17;;
7001;SDS011;3541;53.230;10.518;2022-11-14T02:25:59;38.13;;;22.03;;
7001;SDS011;3541;53.230;10.518;2022-11-14T02:28:26;39.80;;;24.30;;
7001;SDS011;3541;53.230;10.518;2022-11-14T02:30:53;44.47;;;24.87;;
7001;SDS011;3541;53.230;10.518;2022-11-14T02:33:20;36.50;;;22.60;;
7001;SDS011;3541;53.230;10.518;2022-11-14T02:35:46;43.40;;;23.57;;
7001;SDS011;3541;53.230;10.518;2022-11-14T02:38:14;41.97;;;24.17;;
7001;SDS011;3541;53.230;10.518;2022-11-14T02:40:41;38.80;;;22.93;;
7001;SDS011;3541;53.230;10.518;2022-11-14T02:43:08;38.60;;;23.37;;
7001;SDS011;3541;53.230;10.518;2022-11-14T02:45:34;39.73;;;23.80;;
7001;SDS011;3541;53.230;10.518;2022-11-14T02:48:01;36.43;;;22.63;;
7001;SDS011;3541;53.230;10.518;2022-11-14T02:50:28;35.07;;;22.37;;
7001;SDS011;3541;53.230;10.518;2022-11-14T02:52:54;39.67;;;24.00;;
7001;SDS011;3541;53.230;10.518;2022-11-14T02:55:22;38.27;;;23.73;;
7001;SDS011;3541;53.230;10.518;2022-11-14T02:57:49;37.50;;;22.50;;
7001;SDS011;3541;53.230;10.518;2022-11-14T03:00:16;42.83;;;23.90;;
7001;SDS011;3541;53.230;10.518;2022-11-14T03:02:43;41.07;;;22.73;;
7001;SDS011;3541;53.230;10.518;2022-11-14T03:05:10;38.27;;;23.43;;
7001;SDS011;3541;53.230;10.518;2022-11-14T03:07:36;35.13;;;23.00;;
7001;SDS011;3541;53.230;10.518;2022-11-14T03:10:03;36.77;;;21.87;;
7001;SDS011;3541;53.230;10.518;2022-11-14T03:12:33;34.13;;;22.47;;
7001;SDS011;3541;53.230;10.518;2022-11-14T03:14:59;39.33;;;24.27;;
7001;SDS011;3541;53.230;10.518;2022-11-14T03:17:29;37.17;;;22.13;;
7001;SDS011;3541;53.230;10.518;2022-11-14T03:19:56;39.30;;;23.83;;
7001;SDS011;3541;53.230;10.518;2022-11-14T03:22:22;40.10;;;23.30;;
7001;SDS011;3541;53.230;10.518;2022-11-14T03:24:49;39.67;;;24.97;;
7001;SDS011;3541;53.230;10.518;2022-11-14T03:27:16;40.30;;;23.27;;
7001;SDS011;3541;53.230;10.518;2022-11-14T03:29:44;36.67;;;23.43;;
7001;SDS011;3541;53.230;10.518;2022-11-14T03:32:10;38.37;;;23.13;;
7001;SDS011;3541;53.230;10.518;2022-11-14T03:34:37;40.73;;;24.87;;
7001;SDS011;3541;53.230;10.518;2022-11-14T03:37:03;41.93;;;24.43;;
7001;SDS011;3541;53.230;10.518;2022-11-14T03:39:30;40.83;;;23.53;;
7001;SDS011;3541;53.230;10.518;2022-11-14T03:41:56;41.77;;;24.97;;
7001;SDS011;3541;53.230;10.518;2022-11-14T03:44:23;40.83;;;23.17;;
7001;SDS011;3541;53.230;10.518;2022-11-14T03:46:52;42.47;;;23.40;;
7001;SDS011;3541;53.230;10.518;2022-11-14T03:49:18;42.50;;;24.77;;
7001;SDS011;3541;53.230;10.518;2022-11-14T03:51:45;40.37;;;24.73;;
7001;SDS011;3541;53.230;10.518;2022-11-14T03:54:12;41.03;;;25.37;;
7001;SDS011;3541;53.230;10.518;2022-11-14T03:56:38;41.20;;;24.40;;
7001;SDS011;3541;53.230;10.518;2022-11-14T03:59:05;40.57;;;24.67;;
7001;SDS011;3541;53.230;10.518;2022-11-14T04:01:31;39.63;;;24.37;;
7001;SDS011;3541;53.230;10.518;2022-11-14T04:03:59;36.53;;;22.00;;
7001;SDS011;3541;53.230;10.518;2022-11-14T04:06:26;40.03;;;23.63;;
7001;SDS011;3541;53.230;10.518;2022-11-14T04:08:53;40.40;;;23.40;;
7001;SDS011;3541;53.230;10.518;2022-11-14T04:11:20;40.90;;;23.63;;
7001;SDS011;3541;53.230;10.518;2022-11-14T04:13:47;39.77;;;24.07;;
7001;SDS011;3541;53.230;10.518;2022-11-14T04:16:14;40.83;;;24.30;;
7001;SDS011;3541;53.230;10.518;2022-11-14T04:18:40;39.57;;;24.00;;
7001;SDS011;3541;53.230;10.518;2022-11-14T04:21:08;42.30;;;24.77;;
7001;SDS011;3541;53.230;10.518;2022-11-14T04:23:35;38.53;;;23.00;;
7001;SDS011;3541;53.230;10.518;2022-11-14T04:26:01;41.13;;;24.80;;
7001;SDS011;3541;53.230;10.518;2022-11-14T04:28:28;43.03;;;25.40;;
7001;SDS011;3541;53.230;10.518;2022-11-14T04:30:55;38.70;;;25.00;;
7001;SDS011;3541;53.230;10.518;2022-11-14T04:33:21;38.67;;;23.30;;
7001;SDS011;3541;53.230;10.518;2022-11-14T04:35:48;39.47;;;25.20;;
7001;SDS011;3541;53.230;10.518;2022-11-14T04:38:16;41.07;;;25.23;;
7001;SDS011;3541;53.230;10.518;2022-11-14T04:40:46;42.10;;;25.37;;
7001;SDS011;3541;53.230;10.518;2022-11-14T04:43:13;41.00;;;24.23;;
7001;SDS011;3541;53.230;10.518;2022-11-14T04:45:41;43.77;;;25.93;;
7001;SDS011;3541;53.230;10.518;2022-11-14T04:48:07;45.67;;;24.20;;
7001;SDS011;3541;53.230;10.518;2022-11-14T04:50:34;45.93;;;25.40;;
7001;SDS011;3541;53.230;10.518;2022-11-14T04:53:01;41.00;;;24.40;;
7001;SDS011;3541;53.230;10.518;2022-11-14T04:55:29;43.27;;;25.47;;
7001;SDS011;3541;53.230;10.518;2022-11-14T04:57:56;41.10;;;25.07;;
7001;SDS011;3541;53.230;10.518;2022-11-14T05:00:23;42.30;;;25.53;;
7001;SDS011;3541;53.230;10.518;2022-11-14T05:02:50;41.30;;;24.20;;
7001;SDS011;3541;53.230;10.518;2022-11-14T05:05:17;42.33;;;25.70;;
7001;SDS011;3541;53.230;10.518;2022-11-14T05:07:43;41.63;;;24.17;;
7001;SDS011;3541;53.230;10.518;2022-11-14T05:10:10;41.23;;;26.07;;
7001;SDS011;3541;53.230;10.518;2022-11-14T05:12:38;39.77;;;23.87;;
7001;SDS011;3541;53.230;10.518;2022-11-14T05:15:05;39.57;;;23.17;;
7001;SDS011;3541;53.230;10.518;2022-11-14T05:17:32;41.40;;;25.37;;
7001;SDS011;3541;53.230;10.518;2022-11-14T05:19:58;46.87;;;26.17;;
7001;SDS011;3541;53.230;10.518;2022-11-14T05:22:26;45.77;;;25.53;;
7001;SDS011;3541;53.230;10.518;2022-11-14T05:24:53;47.00;;;25.60;;
7001;SDS011;3541;53.230;10.518;2022-11-14T05:27:19;42.10;;;24.20;;
7001;SDS011;3541;53.230;10.518;2022-11-14T05:29:47;46.03;;;26.70;;
7001;SDS011;3541;53.230;10.518;2022-11-14T05:32:14;46.23;;;26.20;;
7001;SDS011;3541;53.230;10.518;2022-11-14T05:34:41;44.00;;;26.10;;
7001;SDS011;3541;53.230;10.518;2022-11-14T05:37:07;49.20;;;26.57;;
7001;SDS011;3541;53.230;10.518;2022-11-14T05:39:34;43.23;;;26.33;;
7001;SDS011;3541;53.230;10.518;2022-11-14T05:42:01;46.17;;;26.73;;
7001;SDS011;3541;53.230;10.518;2022-11-14T05:44:27;43.53;;;25.37;;
7001;SDS011;3541;53.230;10.518;2022-11-14T05:46:55;44.37;;;26.03;;
7001;SDS011;3541;53.230;10.518;2022-11-14T05:49:22;45.50;;;26.13;;
7001;SDS011;3541;53.230;10.518;2022-11-14T05:51:49;45.00;;;27.27;;
7001;SDS011;3541;53.230;10.518;2022-11-14T05:54:15;46.00;;;26.53;;
7001;SDS011;3541;53.230;10.518;2022-11-14T05:56:42;48.37;;;26.17;;
7001;SDS011;3541;53.230;10.518;2022-11-14T05:59:08;42.30;;;24.57;;
7001;SDS011;3541;53.230;10.518;2022-11-14T06:01:35;45.80;;;26.23;;
7001;SDS011;3541;53.230;10.518;2022-11-14T06:04:04;46.83;;;27.33;;
7001;SDS011;3541;53.230;10.518;2022-11-14T06:06:31;47.80;;;26.97;;
7001;SDS011;3541;53.230;10.518;2022-11-14T06:08:57;51.87;;;28.73;;
7001;SDS011;3541;53.230;10.518;2022-11-14T06:11:24;51.83;;;27.57;;
7001;SDS011;3541;53.230;10.518;2022-11-14T06:13:51;51.30;;;27.67;;
7001;SDS011;3541;53.230;10.518;2022-11-14T06:16:18;47.90;;;27.47;;
7001;SDS011;3541;53.230;10.518;2022-11-14T06:18:44;48.63;;;27.17;;
7001;SDS011;3541;53.230;10.518;2022-11-14T06:21:13;50.90;;;26.67;;
7001;SDS011;3541;53.230;10.518;2022-11-14T06:23:41;46.30;;;27.17;;
7001;SDS011;3541;53.230;10.518;2022-11-14T06:26:10;51.63;;;28.43;;
7001;SDS011;3541;53.230;10.518;2022-11-14T06:28:45;48.20;;;28.40;;
7001;SDS011;3541;53.230;10.518;2022-11-14T06:31:11;49.73;;;27.50;;
7001;SDS011;3541;53.230;10.518;2022-11-14T06:33:38;48.63;;;28.13;;
7001;SDS011;3541;53.230;10.518;2022-11-14T06:36:05;54.97;;;28.93;;
7001;SDS011;3541;53.230;10.518;2022-11-14T06:38:34;51.37;;;29.17;;
7001;SDS011;3541;53.230;10.518;2022-11-14T06:41:03;51.37;;;28.67;;
7001;SDS011;3541;53.230;10.518;2022-11-14T06:43:33;48.33;;;28.07;;
7001;SDS011;3541;53.230;10.518;2022-11-14T06:46:01;56.07;;;27.70;;
7001;SDS011;3541;53.230;10.518;2022-11-14T06:48:29;51.47;;;28.17;;
7001;SDS011;3541;53.230;10.518;2022-11-14T06:50:56;46.70;;;26.33;;
7001;SDS011;3541;53.230;10.518;2022-11-14T06:53:24;45.90;;;26.50;;
7001;SDS011;3541;53.230;10.518;2022-11-14T06:55:54;45.77;;;26.43;;
7001;SDS011;3541;53.230;10.518;2022-11-14T06:58:23;46.77;;;25.60;;
7001;SDS011;3541;53.230;10.518;2022-11-14T07:00:51;51.63;;;27.87;;
7001;SDS011;3541;53.230;10.518;2022-11-14T07:03:17;45.27;;;24.67;;
7001;SDS011;3541;53.230;10.518;2022-11-14T07:05:44;42.17;;;24.03;;
7001;SDS011;3541;53.230;10.518;2022-11-14T07:08:10;44.77;;;25.40;;
7001;SDS011;3541;53.230;10.518;2022-11-14T07:10:37;45.30;;;25.03;;
7001;SDS011;3541;53.230;10.518;2022-11-14T07:13:05;44.43;;;23.60;;
7001;SDS011;3541;53.230;10.518;2022-11-14T07:15:33;47.27;;;26.30;;
7001;SDS011;3541;53.230;10.518;2022-11-14T07:18:00;46.53;;;24.70;;
7001;SDS011;3541;53.230;10.518;2022-11-14T07:20:26;48.87;;;26.60;;
7001;SDS011;3541;53.230;10.518;2022-11-14T07:22:53;49.17;;;25.60;;
7001;SDS011;3541;53.230;10.518;2022-11-14T07:25:19;45.10;;;24.73;;
7001;SDS011;3541;53.230;10.518;2022-11-14T07:27:46;48.07;;;25.00;;
7001;SDS011;3541;53.230;10.518;2022-11-14T07:30:15;47.07;;;24.37;;
7001;SDS011;3541;53.230;10.518;2022-11-14T07:32:41;41.83;;;24.40;;
7001;SDS011;3541;53.230;10.518;2022-11-14T07:35:08;43.03;;;24.20;;
7001;SDS011;3541;53.230;10.518;2022-11-14T07:37:34;46.20;;;25.70;;
7001;SDS011;3541;53.230;10.518;2022-11-14T07:40:01;48.63;;;25.17;;
7001;SDS011;3541;53.230;10.518;2022-11-14T07:42:28;42.53;;;24.53;;
7001;SDS011;3541;53.230;10.518;2022-11-14T07:44:54;50.23;;;26.13;;
7001;SDS011;3541;53.230;10.518;2022-11-14T07:47:22;43.70;;;24.77;;
7001;SDS011;3541;53.230;10.518;2022-11-14T07:49:49;45.77;;;25.63;;
7001;SDS011;3541;53.230;10.518;2022-11-14T07:52:15;44.97;;;24.70;;
7001;SDS011;3541;53.230;10.518;2022-11-14T07:54:42;44.90;;;24.47;;
7001;SDS011;3541;53.230;10.518;2022-11-14T07:57:09;42.57;;;24.70;;
7001;SDS011;3541;53.230;10.518;2022-11-14T07:59:35;41.70;;;24.03;;
7001;SDS011;3541;53.230;10.518;2022-11-14T08:02:02;42.77;;;24.47;;
7001;SDS011;3541;53.230;10.518;2022-11-14T08:04:30;43.83;;;24.57;;
7001;SDS011;3541;53.230;10.518;2022-11-14T08:06:56;38.63;;;23.07;;
7001;SDS011;3541;53.230;10.518;2022-11-14T08:09:23;47.23;;;23.50;;
7001;SDS011;3541;53.230;10.518;2022-11-14T08:11:49;40.57;;;23.43;;
7001;SDS011;3541;53.230;10.518;2022-11-14T08:14:16;42.77;;;23.60;;
7001;SDS011;3541;53.230;10.518;2022-11-14T08:16:43;42.53;;;24.77;;
7001;SDS011;3541;53.230;10.518;2022-11-14T08:19:09;43.83;;;24.43;;
7001;SDS011;3541;53.230;10.518;2022-11-14T08:21:37;42.80;;;24.67;;
7001;SDS011;3541;53.230;10.518;2022-11-14T08:24:04;40.60;;;23.77;;
7001;SDS011;3541;53.230;10.518;2022-11-14T08:26:31;43.80;;;24.23;;
7001;SDS011;3541;53.230;10.518;2022-11-14T08:28:58;43.00;;;23.83;;
7001;SDS011;3541;53.230;10.518;2022-11-14T08:31:25;43.07;;;24.03;;
7001;SDS011;3541;53.230;10.518;2022-11-14T08:33:52;41.43;;;24.63;;
7001;SDS011;3541;53.230;10.518;2022-11-14T08:36:18;41.67;;;24.13;;
7001;SDS011;3541;53.230;10.518;2022-11-14T08:38:46;41.83;;;24.67;;
7001;SDS011;3541;53.230;10.518;2022-11-14T08:41:13;41.63;;;24.17;;
7001;SDS011;3541;53.230;10.518;2022-11-14T08:43:39;41.70;;;23.87;;
7001;SDS011;3541;53.230;10.518;2022-11-14T08:46:06;41.07;;;23.07;;
7001;SDS011;3541;53.230;10.518;2022-11-14T08:48:33;39.90;;;24.33;;
7001;SDS011;3541;53.230;10.518;2022-11-14T08:51:02;41.47;;;23.57;;
7001;SDS011;3541;53.230;10.518;2022-11-14T08:53:30;44.33;;;23.20;;
7001;SDS011;3541;53.230;10.518;2022-11-14T08:55:58;43.47;;;24.27;;
7001;SDS011;3541;53.230;10.518;2022-11-14T08:58:26;38.73;;;22.57;;
7001;SDS011;3541;53.230;10.518;2022-11-14T09:00:57;40.33;;;22.73;;
7001;SDS011;3541;53.230;10.518;2022-11-14T09:03:25;45.73;;;23.80;;
7001;SDS011;3541;53.230;10.518;2022-11-14T09:05:51;42.63;;;23.47;;
7001;SDS011;3541;53.230;10.518;2022-11-14T09:08:18;38.43;;;22.03;;
7001;SDS011;3541;53.230;10.518;2022-11-14T09:10:45;41.60;;;24.43;;
7001;SDS011;3541;53.230;10.518;2022-11-14T09:13:13;42.93;;;24.13;;
7001;SDS011;3541;53.230;10.518;2022-11-14T09:15:41;41.67;;;23.33;;
7001;SDS011;3541;53.230;10.518;2022-11-14T09:18:08;40.57;;;23.87;;
7001;SDS011;3541;53.230;10.518;2022-11-14T09:20:35;40.80;;;23.37;;
7001;SDS011;3541;53.230;10.518;2022-11-14T09:23:02;39.30;;;22.77;;
7001;SDS011;3541;53.230;10.518;2022-11-14T09:25:29;42.87;;;24.53;;
7001;SDS011;3541;53.230;10.518;2022-11-14T09:27:56;40.97;;;22.77;;
7001;SDS011;3541;53.230;10.518;2022-11-14T09:30:24;43.70;;;24.37;;
7001;SDS011;3541;53.230;10.518;2022-11-14T09:32:51;41.07;;;23.33;;
7001;SDS011;3541;53.230;10.518;2022-11-14T09:35:17;39.67;;;23.80;;
7001;SDS011;3541;53.230;10.518;2022-11-14T09:37:44;39.40;;;22.43;;
7001;SDS011;3541;53.230;10.518;2022-11-14T09:40:11;41.10;;;24.93;;
7001;SDS011;3541;53.230;10.518;2022-11-14T09:42:44;39.63;;;23.00;;
7001;SDS011;3541;53.230;10.518;2022-11-14T09:45:22;37.90;;;22.53;;
7001;SDS011;3541;53.230;10.518;2022-11-14T09:47:52;39.80;;;21.23;;
7001;SDS011;3541;53.230;10.518;2022-11-14T09:50:21;40.93;;;23.87;;
7001;SDS011;3541;53.230;10.518;2022-11-14T09:52:52;38.03;;;21.53;;
7001;SDS011;3541;53.230;10.518;2022-11-14T09:55:21;37.47;;;22.10;;
7001;SDS011;3541;53.230;10.518;2022-11-14T09:57:53;38.77;;;22.90;;
7001;SDS011;3541;53.230;10.518;2022-11-14T10:00:21;33.47;;;20.93;;
7001;SDS011;3541;53.230;10.518;2022-11-14T10:02:54;35.37;;;21.80;;
7001;SDS011;3541;53.230;10.518;2022-11-14T10:05:47;41.23;;;22.10;;
7001;SDS011;3541;53.230;10.518;2022-11-14T10:08:39;40.30;;;21.40;;
7001;SDS011;3541;53.230;10.518;2022-11-14T10:11:14;37.00;;;21.73;;
7001;SDS011;3541;53.230;10.518;2022-11-14T10:14:11;38.63;;;22.13;;
7001;SDS011;3541;53.230;10.518;2022-11-14T10:16:48;36.60;;;21.43;;
7001;SDS011;3541;53.230;10.518;2022-11-14T10:19:25;35.30;;;22.33;;
7001;SDS011;3541;53.230;10.518;2022-11-14T10:22:03;35.93;;;21.33;;
7001;SDS011;3541;53.230;10.518;2022-11-14T10:24:40;36.23;;;21.53;;
7001;SDS011;3541;53.230;10.518;2022-11-14T10:27:17;31.67;;;20.20;;
7001;SDS011;3541;53.230;10.518;2022-11-14T10:29:51;32.63;;;19.83;;
7001;SDS011;3541;53.230;10.518;2022-11-14T10:32:31;34.70;;;20.13;;
7001;SDS011;3541;53.230;10.518;2022-11-14T10:35:23;31.17;;;19.03;;
7001;SDS011;3541;53.230;10.518;2022-11-14T10:37:56;35.40;;;20.90;;
7001;SDS011;3541;53.230;10.518;2022-11-14T10:40:29;34.87;;;20.60;;
7001;SDS011;3541;53.230;10.518;2022-11-14T10:43:06;36.30;;;20.63;;
7001;SDS011;3541;53.230;10.518;2022-11-14T10:45:43;31.73;;;19.83;;
7001;SDS011;3541;53.230;10.518;2022-11-14T10:48:16;30.90;;;19.27;;
7001;SDS011;3541;53.230;10.518;2022-11-14T10:50:53;31.20;;;19.07;;
7001;SDS011;3541;53.230;10.518;2022-11-14T10:53:24;35.27;;;19.70;;
7001;SDS011;3541;53.230;10.518;2022-11-14T10:55:55;32.60;;;18.57;;
7001;SDS011;3541;53.230;10.518;2022-11-14T10:58:23;33.77;;;19.07;;
7001;SDS011;3541;53.230;10.518;2022-11-14T11:00:50;27.30;;;17.70;;
7001;SDS011;3541;53.230;10.518;2022-11-14T11:03:17;31.43;;;19.43;;
7001;SDS011;3541;53.230;10.518;2022-11-14T11:05:45;32.43;;;19.63;;
7001;SDS011;3541;53.230;10.518;2022-11-14T11:08:20;30.93;;;18.50;;
7001;SDS011;3541;53.230;10.518;2022-11-14T11:11:10;33.50;;;19.50;;
7001;SDS011;3541;53.230;10.518;2022-11-14T11:13:55;30.63;;;19.17;;
7001;SDS011;3541;53.230;10.518;2022-11-14T11:16:25;32.77;;;19.10;;
7001;SDS011;3541;53.230;10.518;2022-11-14T11:18:53;33.27;;;20.20;;
7001;SDS011;3541;53.230;10.518;2022-11-14T11:21:46;29.83;;;19.20;;
7001;SDS011;3541;53.230;10.518;2022-11-14T11:24:24;31.90;;;19.77;;
7001;SDS011;3541;53.230;10.518;2022-11-14T11:27:12;29.40;;;18.93;;
7001;SDS011;3541;53.230;10.518;2022-11-14T11:29:46;28.97;;;18.80;;
7001;SDS011;3541;53.230;10.518;2022-11-14T11:32:22;32.13;;;19.23;;
7001;SDS011;3541;53.230;10.518;2022-11-14T11:34:50;31.17;;;19.60;;
7001;SDS011;3541;53.230;10.518;2022-11-14T11:37:17;31.33;;;19.03;;
7001;SDS011;3541;53.230;10.518;2022-11-14T11:39:48;30.03;;;19.23;;
7001;SDS011;3541;53.230;10.518;2022-11-14T11:42:19;31.87;;;19.07;;
7001;SDS011;3541;53.230;10.518;2022-11-14T11:44:52;30.63;;;19.70;;
7001;SDS011;3541;53.230;10.518;2022-11-14T11:47:22;29.43;;;17.80;;
7001;SDS011;3541;53.230;10.518;2022-11-14T11:49:51;29.37;;;17.73;;
7001;SDS011;3541;53.230;10.518;2022-11-14T11:52:18;27.90;;;18.00;;
7001;SDS011;3541;53.230;10.518;2022-11-14T11:54:57;28.30;;;17.37;;
7001;SDS011;3541;53.230;10.518;2022-11-14T11:57:29;26.93;;;17.07;;
7001;SDS011;3541;53.230;10.518;2022-11-14T12:00:03;28.73;;;17.63;;
7001;SDS011;3541;53.230;10.518;2022-11-14T12:02:32;30.23;;;18.00;;
7001;SDS011;3541;53.230;10.518;2022-11-14T12:05:04;29.10;;;17.93;;
7001;SDS011;3541;53.230;10.518;2022-11-14T12:07:33;26.80;;;18.03;;
7001;SDS011;3541;53.230;10.518;2022-11-14T12:10:12;28.37;;;18.17;;
7001;SDS011;3541;53.230;10.518;2022-11-14T12:15:41;27.90;;;17.13;;
7001;SDS011;3541;53.230;10.518;2022-11-14T12:18:19;27.70;;;17.43;;
7001;SDS011;3541;53.230;10.518;2022-11-14T12:21:08;27.07;;;17.63;;
7001;SDS011;3541;53.230;10.518;2022-11-14T12:26:40;29.73;;;17.87;;
7001;SDS011;3541;53.230;10.518;2022-11-14T12:29:22;27.43;;;17.37;;
7001;SDS011;3541;53.230;10.518;2022-11-14T12:32:09;28.20;;;17.53;;
7001;SDS011;3541;53.230;10.518;2022-11-14T12:34:38;29.30;;;17.70;;
7001;SDS011;3541;53.230;10.518;2022-11-14T12:37:09;31.90;;;18.67;;
7001;SDS011;3541;53.230;10.518;2022-11-14T12:39:41;30.63;;;18.10;;
7001;SDS011;3541;53.230;10.518;2022-11-14T12:42:20;29.60;;;18.63;;
7001;SDS011;3541;53.230;10.518;2022-11-14T12:44:47;28.77;;;17.27;;
7001;SDS011;3541;53.230;10.518;2022-11-14T12:47:15;27.50;;;17.43;;
7001;SDS011;3541;53.230;10.518;2022-11-14T12:49:57;28.93;;;17.23;;
7001;SDS011;3541;53.230;10.518;2022-11-14T12:52:41;24.93;;;16.27;;
7001;SDS011;3541;53.230;10.518;2022-11-14T12:58:20;27.50;;;17.20;;
7001;SDS011;3541;53.230;10.518;2022-11-14T13:00:57;27.33;;;17.13;;
7001;SDS011;3541;53.230;10.518;2022-11-14T13:03:37;28.50;;;17.17;;
7001;SDS011;3541;53.230;10.518;2022-11-14T13:06:17;27.47;;;16.33;;
7001;SDS011;3541;53.230;10.518;2022-11-14T13:11:53;28.13;;;17.73;;
7001;SDS011;3541;53.230;10.518;2022-11-14T13:14:48;26.57;;;17.17;;
7001;SDS011;3541;53.230;10.518;2022-11-14T13:17:34;25.57;;;17.43;;
7001;SDS011;3541;53.230;10.518;2022-11-14T13:20:22;28.17;;;17.07;;
7001;SDS011;3541;53.230;10.518;2022-11-14T13:29:06;26.03;;;16.67;;
7001;SDS011;3541;53.230;10.518;2022-11-14T13:31:44;27.47;;;16.63;;
7001;SDS011;3541;53.230;10.518;2022-11-14T13:34:34;25.13;;;16.83;;
7001;SDS011;3541;53.230;10.518;2022-11-14T13:37:10;27.47;;;16.97;;
7001;SDS011;3541;53.230;10.518;2022-11-14T13:39:53;27.20;;;17.27;;
7001;SDS011;3541;53.230;10.518;2022-11-14T13:42:31;27.50;;;17.73;;
7001;SDS011;3541;53.230;10.518;2022-11-14T13:45:17;26.87;;;17.43;;
7001;SDS011;3541;53.230;10.518;2022-11-14T13:48:24;28.13;;;17.10;;
7001;SDS011;3541;53.230;10.518;2022-11-14T13:51:06;24.03;;;16.33;;
7001;SDS011;3541;53.230;10.518;2022-11-14T13:53:36;28.17;;;17.27;;
7001;SDS011;3541;53.230;10.518;2022-11-14T13:56:07;25.80;;;16.57;;
7001;SDS011;3541;53.230;10.518;2022-11-14T13:58:47;25.87;;;16.70;;
7001;SDS011;3541;53.230;10.518;2022-11-14T14:01:50;26.80;;;16.87;;
7001;SDS011;3541;53.230;10.518;2022-11-14T14:04:43;28.20;;;16.40;;
7001;SDS011;3541;53.230;10.518;2022-11-14T14:07:19;25.90;;;17.03;;
7001;SDS011;3541;53.230;10.518;2022-11-14T14:09:53;25.87;;;17.30;;
7001;SDS011;3541;53.230;10.518;2022-11-14T14:12:34;28.90;;;17.13;;
7001;SDS011;3541;53.230;10.518;2022-11-14T14:15:13;27.07;;;17.17;;
7001;SDS011;3541;53.230;10.518;2022-11-14T14:17:48;27.87;;;17.93;;
7001;SDS011;3541;53.230;10.518;2022-11-14T14:20:28;28.27;;;17.37;;
7001;SDS011;3541;53.230;10.518;2022-11-14T14:23:01;26.23;;;17.17;;
7001;SDS011;3541;53.230;10.518;2022-11-14T14:25:41;26.00;;;17.40;;
7001;SDS011;3541;53.230;10.518;2022-11-14T14:28:17;27.07;;;16.87;;
7001;SDS011;3541;53.230;10.518;2022-11-14T14:31:02;27.13;;;18.50;;
7001;SDS011;3541;53.230;10.518;2022-11-14T14:33:39;27.70;;;16.60;;
7001;SDS011;3541;53.230;10.518;2022-11-14T14:36:16;26.50;;;16.47;;
7001;SDS011;3541;53.230;10.518;2022-11-14T14:38:44;27.00;;;16.10;;
7001;SDS011;3541;53.230;10.518;2022-11-14T14:41:12;26.60;;;16.33;;
7001;SDS011;3541;53.230;10.518;2022-11-14T14:43:42;28.97;;;17.47;;
7001;SDS011;3541;53.230;10.518;2022-11-14T14:46:14;24.57;;;16.40;;
7001;SDS011;3541;53.230;10.518;2022-11-14T14:48:50;25.03;;;15.50;;
7001;SDS011;3541;53.230;10.518;2022-11-14T14:51:27;24.37;;;15.40;;
7001;SDS011;3541;53.230;10.518;2022-11-14T14:53:55;27.87;;;16.97;;
7001;SDS011;3541;53.230;10.518;2022-11-14T14:56:22;23.07;;;15.83;;
7001;SDS011;3541;53.230;10.518;2022-11-14T14:58:50;23.17;;;15.57;;
7001;SDS011;3541;53.230;10.518;2022-11-14T15:01:17;24.60;;;16.57;;
7001;SDS011;3541;53.230;10.518;2022-11-14T15:03:48;25.43;;;16.97;;
7001;SDS011;3541;53.230;10.518;2022-11-14T15:06:20;25.63;;;16.37;;
7001;SDS011;3541;53.230;10.518;2022-11-14T15:08:53;27.73;;;18.10;;